Time;durP1;ratioP1;P1;durP2;ratioP2;P2;SDS_P1;SDS_P2;PMS_P1;PMS_P2;Temp;Humidity;BMP_temperature;BMP_pressure;BME280_temperature;BME280_humidity;BME280_pressure;Samples;Min_cycle;Max_cycle;Signal;HPM_P1;HPM_P2
2023/02/02 00:01:22;;;;;;;12.13;2.95;;;;;;;4.32;74.38;97146.69;6256868;23;20020;-77
2023/02/02 00:03:51;;;;;;;11.77;2.67;;;;;;;4.32;74.81;97145.91;6250897;23;20099;-77
2023/02/02 00:06:19;;;;;;;10.32;2.72;;;;;;;4.32;75.17;97151.06;6248704;23;20016;-77
2023/02/02 00:08:47;;;;;;;7.40;2.78;;;;;;;4.31;75.14;97152.03;6246893;23;20020;-77
2023/02/02 00:11:15;;;;;;;10.02;2.85;;;;;;;4.27;75.64;97140.31;6247061;23;20423;-77
2023/02/02 00:13:43;;;;;;;10.90;2.47;;;;;;;4.25;75.21;97142.19;6247140;23;20023;-77
2023/02/02 00:16:36;;;;;;;6.65;2.38;;;;;;;4.23;76.52;97146.66;6253569;23;20020;-77
2023/02/02 00:19:08;;;;;;;15.05;3.22;;;;;;;4.18;75.65;97141.91;6272615;22;20007;-77
2023/02/02 00:21:37;;;;;;;8.65;3.20;;;;;;;4.16;76.34;97137.81;6271626;22;20047;-77
2023/02/02 00:24:05;;;;;;;11.65;3.38;;;;;;;4.17;76.40;97144.59;6252307;23;20099;-78
2023/02/02 00:26:34;;;;;;;6.78;2.67;;;;;;;4.15;76.74;97138.75;6251414;23;20028;-77
2023/02/02 00:29:01;;;;;;;14.15;3.65;;;;;;;4.15;76.78;97156.81;6248726;23;20027;-77
2023/02/02 00:31:29;;;;;;;9.80;3.05;;;;;;;4.10;76.76;97142.53;6247565;23;20024;-77
2023/02/02 00:33:57;;;;;;;8.60;2.70;;;;;;;4.08;76.57;97144.41;6248014;23;20106;-77
2023/02/02 00:36:26;;;;;;;8.50;2.70;;;;;;;4.06;77.14;97137.75;6246457;23;20071;-78
2023/02/02 00:38:54;;;;;;;9.57;3.38;;;;;;;4.05;76.57;97146.44;6246425;23;20032;-77
2023/02/02 00:41:21;;;;;;;9.38;2.90;;;;;;;4.03;76.59;97144.00;6247362;23;20471;-77
2023/02/02 00:45:14;;;;;;;10.93;3.42;;;;;;;4.03;76.76;97136.25;6247178;23;20031;-77
2023/02/02 00:46:39;;;;;;;14.73;3.13;;;;;;;4.04;77.13;97135.28;6260316;23;20103;-77
2023/02/02 00:49:06;;;;;;;7.75;2.72;;;;;;;4.05;77.08;97147.25;6256222;23;20024;-77
2023/02/02 00:51:36;;;;;;;7.50;2.28;;;;;;;4.05;76.74;97147.25;6248845;23;20024;-77
2023/02/02 00:54:04;;;;;;;6.35;2.50;;;;;;;4.05;77.00;97143.88;6247354;23;20028;-77
2023/02/02 00:56:31;;;;;;;6.60;2.50;;;;;;;4.05;76.91;97139.50;6246834;23;20580;-77
2023/02/02 00:58:59;;;;;;;8.45;3.38;;;;;;;4.05;77.23;97130.97;6246434;23;20020;-76
2023/02/02 01:01:27;;;;;;;10.55;2.70;;;;;;;4.04;77.19;97130.13;6247392;23;20020;-77
2023/02/02 01:03:55;;;;;;;6.63;2.60;;;;;;;4.02;77.59;97124.25;6249067;23;20073;-77
2023/02/02 01:06:22;;;;;;;6.53;2.63;;;;;;;4.02;77.82;97131.19;6249125;23;20027;-77
2023/02/02 01:08:51;;;;;;;9.80;2.35;;;;;;;4.03;77.71;97135.44;6248498;23;20333;-77
2023/02/02 01:11:19;;;;;;;7.95;2.50;;;;;;;4.03;77.80;97154.31;6249404;23;20027;-77
2023/02/02 01:13:47;;;;;;;7.22;2.72;;;;;;;4.03;77.78;97149.16;6248181;23;20472;-77
2023/02/02 01:16:14;;;;;;;4.13;2.10;;;;;;;4.01;77.64;97132.16;6247610;23;20024;-76
2023/02/02 01:18:42;;;;;;;5.07;2.28;;;;;;;3.98;77.48;97140.97;6246601;23;20024;-77
2023/02/02 01:21:11;;;;;;;8.18;2.45;;;;;;;3.98;77.64;97148.72;6247332;23;20039;-76
2023/02/02 01:23:39;;;;;;;7.68;2.38;;;;;;;3.99;77.93;97139.22;6247411;23;20024;-77
2023/02/02 01:26:10;;;;;;;6.03;2.22;;;;;;;4.01;77.74;97135.53;6247423;23;20020;-77
2023/02/02 01:28:38;;;;;;;7.35;1.90;;;;;;;4.02;77.65;97131.19;6246433;23;20031;-77
2023/02/02 01:31:07;;;;;;;6.00;2.17;;;;;;;4.02;78.03;97142.34;6246978;23;20094;-77
2023/02/02 01:33:35;;;;;;;6.68;2.80;;;;;;;4.01;78.16;97142.47;6246973;23;20483;-77
2023/02/02 01:36:06;;;;;;;8.70;3.03;;;;;;;4.00;77.90;97138.25;6247129;23;20020;-77
2023/02/02 01:38:34;;;;;;;8.55;2.47;;;;;;;3.98;77.75;97135.81;6246165;23;20077;-76
2023/02/02 01:41:03;;;;;;;8.32;2.92;;;;;;;4.00;77.89;97128.75;6246635;23;20464;-77
2023/02/02 01:43:52;;;;;;;4.95;2.45;;;;;;;4.02;78.13;97147.50;6246761;23;20020;-77
2023/02/02 01:46:21;;;;;;;5.07;2.40;;;;;;;4.01;78.05;97132.16;6246726;23;20016;-77
2023/02/02 01:48:53;;;;;;;8.38;2.60;;;;;;;4.00;78.15;97143.41;6246171;23;20360;-76
2023/02/02 01:51:27;;;;;;;9.52;2.42;;;;;;;3.97;78.36;97144.50;6246355;23;20070;-77
2023/02/02 01:53:58;;;;;;;8.80;2.00;;;;;;;3.96;78.36;97149.78;6246404;23;20460;-77
2023/02/02 01:56:28;;;;;;;4.22;1.90;;;;;;;3.95;78.34;97145.56;6246452;23;20024;-76
2023/02/02 01:58:59;;;;;;;8.52;2.30;;;;;;;3.93;78.55;97140.53;6245385;23;20026;-77
2023/02/02 02:01:27;;;;;;;7.18;2.53;;;;;;;3.91;78.24;97150.16;6246264;23;20020;-77
2023/02/02 02:03:56;;;;;;;4.50;1.60;;;;;;;3.90;78.18;97146.75;6246428;23;20027;-76
2023/02/02 02:06:24;;;;;;;6.43;2.50;;;;;;;3.91;78.08;97151.00;6246642;23;20028;-76
2023/02/02 02:08:55;;;;;;;6.28;2.30;;;;;;;3.91;78.82;97156.16;6245838;23;20382;-76
2023/02/02 02:11:23;;;;;;;4.75;2.17;;;;;;;3.92;78.46;97149.22;6246454;23;20016;-77
2023/02/02 02:16:53;;;;;;;3.45;2.08;;;;;;;3.89;79.43;97152.03;6246469;23;20024;-76
2023/02/02 02:26:32;;;;;;;;;;;;;;;3.91;79.38;97148.41;6248301;23;20016;-76
2023/02/02 02:28:52;;;;;;;5.68;2.15;;;;;;;3.85;78.98;97153.25;6245008;23;20027;-76
2023/02/02 02:31:51;;;;;;;5.45;1.92;;;;;;;3.81;79.03;97155.25;6245978;23;20464;-77
2023/02/02 02:34:26;;;;;;;4.18;1.90;;;;;;;3.81;79.13;97151.88;6246584;23;20333;-77
2023/02/02 02:37:02;;;;;;;3.72;1.73;;;;;;;3.81;79.05;97155.25;6246202;23;20031;-76
2023/02/02 02:39:37;;;;;;;4.45;1.88;;;;;;;3.79;79.05;97146.81;6245538;23;20403;-77
2023/02/02 02:42:13;;;;;;;9.80;2.90;;;;;;;3.79;79.37;97149.41;6246070;23;20024;-76
2023/02/02 02:44:41;;;;;;;8.70;2.42;;;;;;;3.81;79.03;97157.03;6245967;23;20019;-76
2023/02/02 02:47:11;;;;;;;6.07;1.80;;;;;;;3.83;79.61;97157.72;6246168;23;20468;-76
2023/02/02 02:49:43;;;;;;;4.82;1.98;;;;;;;3.84;79.66;97154.19;6245173;23;20043;-76
2023/02/02 02:52:10;;;;;;;4.25;1.73;;;;;;;3.85;79.21;97138.59;6246277;23;20338;-76
2023/02/02 02:54:41;;;;;;;4.60;1.50;;;;;;;3.87;79.45;97138.44;6246064;23;20020;-77
2023/02/02 02:57:29;;;;;;;4.30;2.30;;;;;;;3.85;79.56;97141.16;6245639;23;20024;-76
2023/02/02 03:00:03;;;;;;;6.05;2.40;;;;;;;3.85;79.48;97145.53;6244657;23;20016;-77
2023/02/02 03:02:44;;;;;;;5.93;2.58;;;;;;;3.85;80.07;97135.19;6246796;23;20349;-76
2023/02/02 03:05:26;;;;;;;4.97;2.88;;;;;;;3.84;79.52;97147.25;6245819;23;20031;-77
2023/02/02 03:08:03;;;;;;;5.20;2.20;;;;;;;3.83;79.71;97148.22;6244902;23;20020;-76
2023/02/02 03:10:32;;;;;;;4.03;2.03;;;;;;;3.83;79.44;97143.06;6245591;23;20024;-77
2023/02/02 03:13:00;;;;;;;4.13;2.03;;;;;;;3.84;79.77;97134.34;6245880;23;20016;-76
2023/02/02 03:15:27;;;;;;;9.63;2.47;;;;;;;3.85;79.62;97145.53;6246690;23;20020;-76
2023/02/02 03:17:56;;;;;;;6.40;1.90;;;;;;;3.86;79.70;97152.31;6244879;23;20557;-75
2023/02/02 03:20:24;;;;;;;6.38;2.50;;;;;;;3.85;79.56;97145.53;6244769;23;20020;-76
2023/02/02 03:22:51;;;;;;;4.47;2.08;;;;;;;3.82;79.66;97145.75;6245389;23;20070;-77
2023/02/02 03:25:19;;;;;;;5.97;2.08;;;;;;;3.83;79.55;97135.31;6244983;23;20031;-76
2023/02/02 03:27:46;;;;;;;6.50;2.03;;;;;;;3.83;80.04;97142.25;6244729;23;20024;-76
2023/02/02 03:30:14;;;;;;;5.97;1.90;;;;;;;3.83;79.82;97145.63;6244931;23;20498;-76
2023/02/02 03:32:42;;;;;;;5.78;2.47;;;;;;;3.84;80.17;97149.84;6245501;23;20020;-76
2023/02/02 03:35:11;;;;;;;5.25;2.05;;;;;;;3.85;80.33;97146.31;6244955;23;20079;-76
2023/02/02 03:37:39;;;;;;;7.07;2.28;;;;;;;3.87;79.94;97159.94;6269809;22;20061;-76
2023/02/02 03:40:07;;;;;;;5.47;1.95;;;;;;;3.89;79.72;97175.25;6270876;22;20022;-75
2023/02/02 03:42:34;;;;;;;4.80;1.70;;;;;;;3.88;79.86;97158.16;6261934;22;20016;-76
2023/02/02 03:45:02;;;;;;;6.00;2.28;;;;;;;3.86;79.82;97149.72;6247431;23;20024;-77
2023/02/02 03:47:30;;;;;;;6.32;2.42;;;;;;;3.86;79.67;97147.94;6246094;23;20024;-76
2023/02/02 03:49:57;;;;;;;8.00;2.88;;;;;;;3.85;79.59;97168.75;6246082;23;20020;-76
2023/02/02 03:52:26;;;;;;;6.05;3.03;;;;;;;3.85;79.63;97161.81;6246271;23;20428;-77
2023/02/02 03:54:54;;;;;;;7.47;2.35;;;;;;;3.85;80.13;97163.59;6257844;23;20011;-76
2023/02/02 03:57:21;;;;;;;5.63;2.17;;;;;;;3.84;80.09;97160.16;6270797;23;20075;-75
2023/02/02 03:59:49;;;;;;;4.10;1.63;;;;;;;3.86;79.75;97162.63;6264699;23;20050;-76
2023/02/02 04:02:16;;;;;;;6.57;2.40;;;;;;;3.87;79.91;97165.09;6249550;23;20027;-76
2023/02/02 04:04:44;;;;;;;5.47;2.05;;;;;;;3.88;79.98;97171.88;6248170;23;20020;-76
2023/02/02 04:07:11;;;;;;;5.70;1.75;;;;;;;3.89;80.38;97167.53;6246868;23;20035;-76
2023/02/02 04:09:40;;;;;;;4.85;1.92;;;;;;;3.90;80.36;97174.34;6245464;23;20020;-76
2023/02/02 04:12:08;;;;;;;3.95;1.80;;;;;;;3.91;80.13;97163.91;6245796;23;20456;-77
2023/02/02 04:14:35;;;;;;;8.18;2.67;;;;;;;3.91;80.64;97160.47;6250358;23;20031;-76
2023/02/02 04:17:03;;;;;;;6.95;2.40;;;;;;;3.91;80.63;97161.31;6265133;23;20023;-76
2023/02/02 04:19:30;;;;;;;9.27;2.40;;;;;;;3.91;80.45;97163.06;6266186;23;20008;-75
2023/02/02 04:21:58;;;;;;;3.75;2.15;;;;;;;3.92;80.86;97167.28;6247286;23;20020;-77
2023/02/02 04:24:25;;;;;;;3.47;1.80;;;;;;;3.92;80.81;97177.63;6245882;23;20020;-76
2023/02/02 04:26:54;;;;;;;6.97;2.13;;;;;;;3.91;80.87;97181.13;6245077;23;20028;-77
2023/02/02 04:29:22;;;;;;;4.55;2.03;;;;;;;3.92;80.61;97181.00;6244485;23;20020;-77
2023/02/02 04:31:49;;;;;;;5.28;2.38;;;;;;;3.93;80.46;97174.06;6245181;23;20020;-76
2023/02/02 04:34:17;;;;;;;5.72;2.50;;;;;;;3.94;80.37;97180.06;6245236;23;20364;-76
2023/02/02 04:36:45;;;;;;;5.18;2.40;;;;;;;3.94;80.51;97182.66;6245545;23;20456;-77
2023/02/02 04:39:12;;;;;;;6.53;2.20;;;;;;;3.94;80.48;97191.22;6246186;23;20395;-76
2023/02/02 04:41:40;;;;;;;3.92;1.88;;;;;;;3.95;80.89;97182.50;6247205;23;20024;-76
2023/02/02 04:44:14;;;;;;;5.18;2.03;;;;;;;3.95;80.48;97182.50;6246932;23;20491;-76
2023/02/02 04:46:41;;;;;;;4.97;1.90;;;;;;;3.97;80.52;97197.88;6247552;23;20020;-76
2023/02/02 04:49:09;;;;;;;4.18;2.03;;;;;;;3.98;80.62;97196.94;6245858;23;20411;-77
2023/02/02 04:51:37;;;;;;;7.47;2.75;;;;;;;3.98;80.54;97208.09;6246925;23;20024;-76
2023/02/02 04:54:06;;;;;;;4.53;1.80;;;;;;;3.98;80.58;97197.78;6247558;23;20449;-77
2023/02/02 04:56:33;;;;;;;5.47;2.15;;;;;;;4.00;80.46;97205.38;6246932;23;20016;-77
2023/02/02 04:59:01;;;;;;;4.57;2.25;;;;;;;4.01;80.58;97202.66;6246292;23;20028;-76
2023/02/02 05:01:30;;;;;;;6.32;1.65;;;;;;;4.02;80.56;97206.06;6246555;23;20043;-75
2023/02/02 05:03:58;;;;;;;4.57;2.03;;;;;;;4.00;80.26;97203.63;6246340;23;20566;-76
2023/02/02 05:06:25;;;;;;;7.03;2.17;;;;;;;4.00;80.51;97216.53;6246890;23;20082;-76
2023/02/02 05:08:52;;;;;;;6.88;3.15;;;;;;;4.01;80.44;97220.75;6247352;23;20051;-77
2023/02/02 05:11:22;;;;;;;7.75;4.88;;;;;;;4.02;80.63;97217.19;6249558;23;20016;-76
2023/02/02 05:13:52;;;;;;;6.28;2.78;;;;;;;4.03;80.45;97220.63;6247377;23;20027;-75
2023/02/02 05:16:20;;;;;;;5.80;2.10;;;;;;;4.02;80.60;97209.44;6247735;23;20027;-76
2023/02/02 05:18:50;;;;;;;8.80;2.65;;;;;;;4.04;80.98;97210.16;6245990;23;20060;-77
2023/02/02 05:21:18;;;;;;;5.93;2.20;;;;;;;4.05;80.78;97214.38;6246871;23;20024;-76
2023/02/02 05:23:46;;;;;;;7.65;2.60;;;;;;;4.07;80.86;97212.50;6246562;23;20024;-77
2023/02/02 05:26:21;;;;;;;6.45;2.60;;;;;;;4.08;81.13;97208.13;6246516;23;20024;-76
2023/02/02 05:28:48;;;;;;;8.60;2.47;;;;;;;4.09;81.09;97215.78;6245392;23;20326;-76
2023/02/02 05:31:16;;;;;;;4.95;2.00;;;;;;;4.10;80.62;97212.22;6246139;23;20020;-76
2023/02/02 05:33:44;;;;;;;9.48;2.17;;;;;;;4.08;80.67;97215.88;6246567;23;20021;-76
2023/02/02 05:36:13;;;;;;;5.13;2.45;;;;;;;4.08;80.71;97214.13;6245769;23;20477;-76
2023/02/02 05:38:41;;;;;;;6.82;2.33;;;;;;;4.10;81.08;97212.22;6245572;23;20336;-76
2023/02/02 05:41:08;;;;;;;12.50;3.50;;;;;;;4.10;80.76;97229.50;6245766;23;20039;-76
2023/02/02 05:43:36;;;;;;;5.13;2.10;;;;;;;4.09;80.93;97230.44;6245318;23;20483;-76
2023/02/02 05:46:04;;;;;;;5.38;2.13;;;;;;;4.09;80.97;97231.25;6246157;23;20039;-76
2023/02/02 05:48:32;;;;;;;4.28;2.33;;;;;;;4.08;80.50;97228.78;6245077;23;20095;-77
2023/02/02 05:51:04;;;;;;;3.83;2.20;;;;;;;4.08;81.19;97228.78;6244486;23;20016;-77
2023/02/02 05:53:33;;;;;;;5.68;2.95;;;;;;;4.09;81.20;97245.94;6245937;23;20017;-77
2023/02/02 05:56:00;;;;;;;3.78;1.85;;;;;;;4.09;80.97;97246.75;6246296;23;20090;-76
2023/02/02 05:58:28;;;;;;;8.85;2.20;;;;;;;4.12;81.14;97238.75;6245054;23;20030;-77
2023/02/02 06:00:56;;;;;;;8.38;2.17;;;;;;;4.15;80.92;97239.44;6245728;23;20070;-76
2023/02/02 06:03:23;;;;;;;6.93;3.13;;;;;;;4.18;81.17;97239.22;6246521;23;20035;-77
2023/02/02 06:05:51;;;;;;;9.40;4.03;;;;;;;4.19;80.96;97238.25;6246413;23;20510;-77
2023/02/02 06:08:19;;;;;;;9.20;2.88;;;;;;;4.18;80.59;97245.19;6242363;22;20460;-75
2023/02/02 06:10:48;;;;;;;10.50;2.33;;;;;;;4.18;80.49;97239.22;6246694;23;20024;-75
2023/02/02 06:13:15;;;;;;;4.68;2.00;;;;;;;4.19;81.04;97244.22;6246805;23;20017;-76
2023/02/02 06:15:43;;;;;;;4.32;1.83;;;;;;;4.21;80.90;97249.28;6246588;23;20037;-75
2023/02/02 06:18:10;;;;;;;5.85;2.28;;;;;;;4.21;80.72;97242.34;6259193;22;20038;-74
2023/02/02 06:20:38;;;;;;;8.85;2.83;;;;;;;4.20;80.77;97240.72;6277675;22;20034;-76
2023/02/02 06:23:05;;;;;;;7.43;2.45;;;;;;;4.21;81.50;97238.94;6278076;22;20027;-78
2023/02/02 06:25:34;;;;;;;9.18;2.22;;;;;;;4.21;81.50;97250.09;6278295;22;20019;-78
2023/02/02 06:28:03;;;;;;;5.63;2.20;;;;;;;4.22;81.80;97246.56;6277024;22;20363;-78
2023/02/02 06:30:30;;;;;;;5.38;2.63;;;;;;;4.23;80.97;97260.28;6277175;22;20476;-78
2023/02/02 06:32:59;;;;;;;4.47;2.00;;;;;;;4.21;81.42;97259.59;6276983;22;20474;-78
2023/02/02 06:35:27;;;;;;;3.13;2.03;;;;;;;4.20;81.11;97252.78;6277357;22;20020;-78
2023/02/02 06:37:54;;;;;;;8.85;2.20;;;;;;;4.18;81.40;97263.25;6276436;22;20538;-78
2023/02/02 06:40:22;;;;;;;4.53;2.15;;;;;;;4.16;81.46;97257.41;6276982;22;20016;-78
2023/02/02 06:42:55;;;;;;;4.15;2.35;;;;;;;4.16;81.53;97259.16;6277407;22;20042;-78
2023/02/02 06:45:24;;;;;;;8.80;2.78;;;;;;;4.13;81.27;97263.63;6277435;22;20020;-78
2023/02/02 06:47:53;;;;;;;4.50;2.20;;;;;;;4.13;81.03;97266.22;6276393;22;20024;-78
2023/02/02 06:50:21;;;;;;;3.92;2.22;;;;;;;4.11;81.04;97257.78;6276629;22;20023;-78
2023/02/02 06:52:48;;;;;;;7.10;2.22;;;;;;;4.10;81.31;97263.06;6277462;22;20081;-78
2023/02/02 06:55:17;;;;;;;10.77;2.50;;;;;;;4.08;81.21;97265.75;6277225;22;20015;-78
2023/02/02 06:57:44;;;;;;;6.75;2.55;;;;;;;4.07;81.36;97260.75;6276278;22;20023;-78
2023/02/02 07:00:13;;;;;;;8.40;2.75;;;;;;;4.07;81.87;97266.72;6276784;22;20544;-78
2023/02/02 07:02:46;;;;;;;4.07;1.95;;;;;;;4.09;81.91;97267.41;6277100;22;20562;-78
2023/02/02 07:05:13;;;;;;;4.72;2.70;;;;;;;4.09;81.48;97262.25;6276586;22;20041;-78
2023/02/02 07:07:41;;;;;;;3.80;2.30;;;;;;;4.10;81.58;97266.44;6276822;22;20019;-78
2023/02/02 07:10:09;;;;;;;6.55;2.50;;;;;;;4.09;81.82;97270.00;6276216;22;20031;-78
2023/02/02 07:12:56;;;;;;;4.50;2.08;;;;;;;4.10;81.42;97273.38;6276988;22;20402;-78
2023/02/02 07:15:24;;;;;;;6.38;2.40;;;;;;;4.11;81.28;97268.09;6276717;22;20011;-78
2023/02/02 07:17:54;;;;;;;4.32;2.42;;;;;;;4.11;81.27;97268.09;6276021;22;20360;-78
2023/02/02 07:20:21;;;;;;;6.28;2.45;;;;;;;4.12;81.48;97276.66;6276924;22;20038;-78
2023/02/02 07:22:49;;;;;;;5.07;2.05;;;;;;;4.10;81.32;97281.94;6277276;22;20352;-78
2023/02/02 07:25:17;;;;;;;4.22;2.17;;;;;;;4.09;81.34;97277.75;6282828;22;20042;-78
2023/02/02 07:27:45;;;;;;;5.25;1.85;;;;;;;4.09;81.57;97279.50;6286501;22;20023;-78
2023/02/02 07:30:14;;;;;;;6.57;2.72;;;;;;;4.04;81.47;97274.69;6284107;22;20019;-78
2023/02/02 07:32:46;;;;;;;5.28;1.90;;;;;;;4.03;81.60;97287.75;6277094;22;20026;-78
2023/02/02 07:35:15;;;;;;;3.15;2.20;;;;;;;4.01;81.67;97274.94;6277255;22;20016;-78
2023/02/02 07:37:43;;;;;;;5.43;2.08;;;;;;;3.99;81.16;97279.41;6276780;22;20019;-77
2023/02/02 07:40:12;;;;;;;4.55;2.00;;;;;;;3.97;81.47;97278.72;6276775;22;20042;-78
2023/02/02 07:42:39;;;;;;;8.07;2.78;;;;;;;3.95;81.62;97278.03;6277167;22;20020;-78
2023/02/02 07:45:07;;;;;;;6.15;2.20;;;;;;;3.97;81.81;97283.88;6276154;22;20020;-78
2023/02/02 07:47:58;;;;;;;7.07;2.25;;;;;;;3.97;81.66;97285.66;6275926;22;20023;-78
2023/02/02 07:50:29;;;;;;;4.82;2.60;;;;;;;3.98;81.59;97285.53;6277173;22;20049;-78
2023/02/02 07:52:58;;;;;;;3.15;2.10;;;;;;;4.02;81.73;97276.56;6276906;22;20062;-78
2023/02/02 07:55:26;;;;;;;5.28;2.20;;;;;;;4.04;82.00;97291.94;6277807;22;20364;-78
2023/02/02 07:57:57;;;;;;;6.05;2.47;;;;;;;4.06;82.11;97288.28;6276285;22;20027;-78
2023/02/02 08:00:25;;;;;;;8.45;2.90;;;;;;;4.09;82.24;97282.09;6276920;22;20019;-78
2023/02/02 08:02:53;;;;;;;5.90;2.25;;;;;;;4.10;82.02;97284.53;6276810;22;20023;-78
2023/02/02 08:05:21;;;;;;;5.70;2.33;;;;;;;4.13;81.78;97283.44;6276723;22;20016;-78
2023/02/02 08:07:50;;;;;;;6.95;3.00;;;;;;;4.15;82.00;97294.47;6275618;22;20464;-78
2023/02/02 08:10:18;;;;;;;7.70;3.33;;;;;;;4.17;81.89;97289.19;6276965;22;20019;-78
2023/02/02 08:12:45;;;;;;;6.25;2.50;;;;;;;4.19;81.63;97292.47;6276964;22;20355;-78
2023/02/02 08:15:13;;;;;;;3.22;2.33;;;;;;;4.22;82.00;97298.22;6276529;22;20016;-78
2023/02/02 08:17:45;;;;;;;4.57;2.42;;;;;;;4.27;81.54;97296.06;6276950;22;20020;-78
2023/02/02 08:20:13;;;;;;;7.38;2.65;;;;;;;4.30;81.68;97298.41;6276724;22;20478;-78
2023/02/02 08:22:40;;;;;;;6.60;2.33;;;;;;;4.32;81.69;97301.66;6276797;22;20024;-79
2023/02/02 08:25:10;;;;;;;5.57;2.15;;;;;;;4.32;81.66;97298.28;6276370;22;20016;-78
2023/02/02 08:27:37;;;;;;;4.85;2.30;;;;;;;4.31;81.40;97306.97;6277173;22;20329;-78
2023/02/02 08:30:05;;;;;;;5.20;2.30;;;;;;;4.30;81.56;97307.91;6276016;22;20026;-78
2023/02/02 08:32:33;;;;;;;7.07;2.60;;;;;;;4.30;81.46;97313.88;6276298;22;20034;-78
2023/02/02 08:35:00;;;;;;;7.20;3.15;;;;;;;4.30;81.44;97321.63;6276945;22;20068;-78
2023/02/02 08:37:28;;;;;;;6.00;2.92;;;;;;;4.29;81.65;97324.38;6283372;22;20103;-78
2023/02/02 08:39:55;;;;;;;3.97;2.70;;;;;;;4.26;81.55;97333.19;6290170;22;20023;-78
2023/02/02 08:42:24;;;;;;;2.70;1.70;;;;;;;4.24;81.29;97329.06;6282998;22;20043;-78
2023/02/02 08:44:52;;;;;;;3.25;2.35;;;;;;;4.25;81.75;97338.47;6277282;22;20016;-78
2023/02/02 08:47:40;;;;;;;5.05;2.75;;;;;;;4.27;81.70;97334.00;6276496;22;20086;-78
2023/02/02 08:50:09;;;;;;;5.82;2.25;;;;;;;4.27;82.04;97336.59;6275753;22;20402;-78
2023/02/02 08:52:37;;;;;;;8.27;2.70;;;;;;;4.28;82.20;97338.22;6276897;22;20023;-78
2023/02/02 08:55:05;;;;;;;4.70;2.33;;;;;;;4.27;82.17;97342.56;6276239;22;20012;-78
2023/02/02 08:57:34;;;;;;;5.00;2.50;;;;;;;4.28;82.40;97335.63;6276888;22;20023;-78
2023/02/02 09:00:02;;;;;;;4.05;1.95;;;;;;;4.30;82.02;97328.56;6275633;22;20026;-78
2023/02/02 09:02:30;;;;;;;4.70;2.50;;;;;;;4.34;82.38;97332.56;6276228;22;20024;-78
2023/02/02 09:04:58;;;;;;;7.18;3.17;;;;;;;4.34;82.30;97332.56;6276644;22;20023;-78
2023/02/02 09:07:25;;;;;;;6.55;2.88;;;;;;;4.37;82.52;97329.72;6276245;22;20361;-78
2023/02/02 09:09:54;;;;;;;4.22;2.90;;;;;;;4.36;82.59;97325.50;6275936;22;20020;-78
2023/02/02 09:12:22;;;;;;;3.67;2.60;;;;;;;4.38;82.53;97325.38;6276130;22;20019;-78
2023/02/02 09:14:50;;;;;;;8.45;2.80;;;;;;;4.39;82.44;97322.66;6276411;22;20022;-78
2023/02/02 09:17:18;;;;;;;8.50;3.20;;;;;;;4.40;82.87;97320.91;6276223;22;20019;-78
2023/02/02 09:19:46;;;;;;;7.03;2.80;;;;;;;4.42;83.18;97335.34;6275302;22;20024;-78
2023/02/02 09:22:13;;;;;;;5.82;2.80;;;;;;;4.45;82.54;97323.94;6276087;22;20039;-78
2023/02/02 09:24:40;;;;;;;5.47;2.78;;;;;;;4.47;82.89;97324.63;6277893;22;20027;-78
2023/02/02 09:27:08;;;;;;;4.80;2.83;;;;;;;4.47;82.46;97333.19;6277875;22;20019;-78
2023/02/02 09:29:36;;;;;;;4.20;2.70;;;;;;;4.49;82.33;97326.13;6277407;22;20023;-78
2023/02/02 09:32:05;;;;;;;5.07;2.67;;;;;;;4.50;82.89;97348.47;6278032;22;20023;-78
2023/02/02 09:34:32;;;;;;;4.88;2.63;;;;;;;4.51;82.73;97339.75;6278281;22;20019;-78
2023/02/02 09:37:00;;;;;;;7.50;3.00;;;;;;;4.52;82.72;97343.97;6277938;22;20027;-78
2023/02/02 09:39:27;;;;;;;15.43;3.55;;;;;;;4.52;82.40;97341.38;6277445;22;20019;-78
2023/02/02 09:42:13;;;;;;;4.57;3.30;;;;;;;4.52;82.71;97356.88;6277767;22;20028;-78
2023/02/02 09:45:12;;;;;;;8.07;4.07;;;;;;;4.52;82.71;97351.69;6278761;22;20026;-78
2023/02/02 09:48:08;;;;;;;4.43;3.17;;;;;;;4.52;82.91;97356.88;6299496;22;20040;-78
2023/02/02 09:50:45;;;;;;;8.05;3.72;;;;;;;4.52;82.65;97354.28;6297765;22;20031;-78
2023/02/02 09:53:27;;;;;;;7.15;2.80;;;;;;;4.55;83.44;97363.59;6300684;22;20019;-78
2023/02/02 09:55:58;;;;;;;5.47;3.08;;;;;;;4.58;83.35;97354.75;6295258;22;20090;-78
2023/02/02 09:58:30;;;;;;;5.95;2.58;;;;;;;4.61;82.76;97351.91;6277835;22;20030;-78
2023/02/02 10:01:03;;;;;;;9.45;2.60;;;;;;;4.63;83.09;97362.94;6278828;22;20042;-78
2023/02/02 10:03:38;;;;;;;8.68;3.35;;;;;;;4.64;82.94;97362.81;6278346;22;20078;-78
2023/02/02 10:06:18;;;;;;;6.80;2.65;;;;;;;4.65;82.39;97361.06;6278011;22;20098;-78
2023/02/02 10:08:52;;;;;;;9.43;2.90;;;;;;;4.66;82.29;97373.84;6276755;22;20023;-78
2023/02/02 10:11:30;;;;;;;7.80;3.13;;;;;;;4.66;82.45;97363.53;6278140;22;20015;-78
2023/02/02 10:14:02;;;;;;;4.85;3.30;;;;;;;4.69;82.73;97370.19;6278160;22;20026;-78
2023/02/02 10:16:32;;;;;;;8.00;2.50;;;;;;;4.70;82.44;97371.81;6278036;22;20050;-78
2023/02/02 10:19:04;;;;;;;9.85;3.38;;;;;;;4.71;82.60;97365.72;6276576;22;20232;-78
2023/02/02 10:21:39;;;;;;;6.93;3.00;;;;;;;4.72;82.78;97367.34;6277507;22;20069;-78
2023/02/02 10:24:17;;;;;;;11.10;3.03;;;;;;;4.74;82.67;97360.28;6278080;22;20100;-78
2023/02/02 10:26:47;;;;;;;8.32;3.42;;;;;;;4.75;82.50;97365.34;6278263;22;20026;-78
2023/02/02 10:29:29;;;;;;;5.90;2.80;;;;;;;4.77;82.77;97362.63;6278165;22;20107;-78
2023/02/02 10:32:22;;;;;;;7.47;3.85;;;;;;;4.79;82.15;97373.66;6279375;22;20460;-78
2023/02/02 10:35:03;;;;;;;6.50;3.40;;;;;;;4.81;82.51;97366.63;6277779;22;20049;-78
2023/02/02 10:37:46;;;;;;;8.80;4.10;;;;;;;4.82;82.06;97367.44;6277384;22;20386;-78
2023/02/02 10:40:24;;;;;;;8.38;3.17;;;;;;;4.81;82.43;97373.53;6277277;22;20023;-78
2023/02/02 10:45:59;;;;;;;7.75;3.22;;;;;;;4.86;81.93;97376.56;6277351;22;20042;-78
2023/02/02 10:48:31;;;;;;;5.72;3.35;;;;;;;4.86;81.85;97389.50;6276929;22;20020;-78
2023/02/02 10:51:04;;;;;;;8.43;3.58;;;;;;;4.87;82.09;97385.94;6277424;22;20074;-78
2023/02/02 10:53:32;;;;;;;;;;;;;;;4.88;82.75;97383.25;6278444;22;20114;-78
2023/02/02 10:56:05;;;;;;;7.63;3.67;;;;;;;4.88;82.35;97382.44;6277628;22;19915;-78
2023/02/02 10:58:37;;;;;;;;;;;;;;;4.89;82.46;97384.88;6276704;22;20027;-78
2023/02/02 11:01:10;;;;;;;7.60;3.50;;;;;;;4.89;81.71;97384.88;6276840;22;20270;-78
2023/02/02 11:03:38;;;;;;;12.73;5.47;;;;;;;4.88;81.74;97391.00;6277278;22;20016;-78
2023/02/02 11:08:58;;;;;;;12.10;4.43;;;;;;;4.94;82.29;97397.41;6276153;22;20403;-78
2023/02/02 11:11:29;;;;;;;8.60;3.85;;;;;;;4.95;82.28;97406.81;6276891;22;20026;-78
2023/02/02 11:14:02;;;;;;;9.52;3.80;;;;;;;4.97;82.51;97386.84;6277075;22;20020;-78
2023/02/02 11:16:30;;;;;;;9.45;3.58;;;;;;;5.00;82.30;97398.69;6277158;22;20019;-77
2023/02/02 11:19:22;;;;;;;7.38;3.65;;;;;;;5.03;82.72;97386.34;6279412;22;20020;-78
2023/02/02 11:21:54;;;;;;;8.85;3.40;;;;;;;5.07;82.50;97381.72;6298676;22;20043;-78
2023/02/02 11:24:24;;;;;;;11.15;4.43;;;;;;;5.11;81.99;97385.69;6298389;22;20020;-78
2023/02/02 11:26:55;;;;;;;8.07;4.05;;;;;;;5.11;81.82;97383.09;6290291;22;20478;-78
2023/02/02 11:29:26;;;;;;;11.02;4.40;;;;;;;5.12;81.85;97382.16;6290132;22;20047;-77
2023/02/02 11:31:55;;;;;;;10.02;4.80;;;;;;;5.13;82.06;97382.00;6284333;22;20020;-78
2023/02/02 11:34:25;;;;;;;9.75;5.28;;;;;;;5.13;81.80;97383.78;6277668;22;20058;-78
2023/02/02 11:37:12;;;;;;;11.05;4.00;;;;;;;5.17;82.01;97387.75;6277152;22;20016;-77
2023/02/02 11:39:40;;;;;;;10.38;5.93;;;;;;;5.18;81.87;97379.03;6276055;22;20444;-77
2023/02/02 11:42:14;;;;;;;12.55;4.20;;;;;;;5.19;81.83;97385.88;6276644;22;20023;-78
2023/02/02 11:44:47;;;;;;;9.90;4.43;;;;;;;5.20;81.42;97392.66;6276666;22;20022;-78
2023/02/02 11:47:21;;;;;;;9.68;4.38;;;;;;;5.19;81.32;97391.03;6275874;22;20020;-77
2023/02/02 11:49:50;;;;;;;6.47;3.40;;;;;;;5.17;81.55;97382.59;6275086;22;20460;-77
2023/02/02 11:52:23;;;;;;;7.88;2.58;;;;;;;5.19;81.63;97380.69;6276765;22;20023;-78
2023/02/02 11:54:54;;;;;;;5.97;2.42;;;;;;;5.20;81.59;97379.72;6276702;22;20023;-77
2023/02/02 11:57:24;;;;;;;7.80;2.97;;;;;;;5.20;81.62;97382.31;6276419;22;20079;-78
2023/02/02 12:00:14;;;;;;;6.40;2.83;;;;;;;5.23;82.35;97376.91;6275663;22;20463;-78
2023/02/02 12:02:46;;;;;;;5.68;2.70;;;;;;;5.26;82.25;97376.63;6276605;22;20019;-78
2023/02/02 12:05:32;;;;;;;5.57;3.25;;;;;;;5.28;81.66;97372.16;6276774;22;20098;-78
2023/02/02 12:08:01;;;;;;;5.57;3.00;;;;;;;5.26;81.58;97381.81;6267375;22;20451;-78
2023/02/02 12:10:35;;;;;;;7.68;2.95;;;;;;;5.23;81.49;97376.91;6245857;23;20085;-78
2023/02/02 12:13:09;;;;;;;8.88;3.40;;;;;;;5.17;81.36;97372.25;6245851;23;20020;-77